createdAt,value
2022-08-24T00:05:28.686Z,98786.21
2022-08-24T00:15:36.395Z,98775.35
2022-08-24T00:25:43.849Z,98777.10
2022-08-24T00:35:50.855Z,98775.55
2022-08-24T00:45:58.084Z,98770.58
2022-08-24T00:56:07.983Z,98761.48
2022-08-24T01:06:34.900Z,98764.42
2022-08-24T01:16:59.629Z,98771.04
2022-08-24T01:27:10.174Z,98781.30
2022-08-24T01:37:17.713Z,98787.70
2022-08-24T01:47:25.657Z,98788.59
2022-08-24T01:57:33.267Z,98789.23
2022-08-24T02:07:41.171Z,98789.29
2022-08-24T02:17:48.393Z,98797.73
2022-08-24T02:27:54.489Z,98796.82
2022-08-24T02:38:01.683Z,98802.20
2022-08-24T02:48:09.160Z,98811.70
2022-08-24T02:58:18.113Z,98814.63
2022-08-24T03:08:26.431Z,98818.98
2022-08-24T03:18:36.913Z,98819.95
2022-08-24T03:28:45.299Z,98825.29
2022-08-24T03:38:52.300Z,98835.03
2022-08-24T03:49:00.184Z,98838.06
2022-08-24T03:59:10.277Z,98840.54
2022-08-24T04:09:18.457Z,98837.67
2022-08-24T04:19:25.436Z,98837.00
2022-08-24T04:39:39.688Z,98833.84
2022-08-24T04:49:47.881Z,98845.67
2022-08-24T04:59:56.558Z,98847.23
2022-08-24T05:10:02.827Z,98842.95
2022-08-24T05:20:12.137Z,98850.02
2022-08-24T05:30:19.742Z,98846.29
2022-08-24T05:40:32.551Z,98851.71
2022-08-24T05:50:40.685Z,98855.51
2022-08-24T06:00:49.796Z,98859.70
2022-08-24T06:10:55.779Z,98853.94
2022-08-24T06:21:05.563Z,98861.00
2022-08-24T06:31:12.540Z,98868.84
2022-08-24T06:41:18.801Z,98873.13
2022-08-24T06:51:25.688Z,98878.23
2022-08-24T07:01:33.765Z,98882.50
2022-08-24T07:11:41.589Z,98900.43
2022-08-24T07:21:48.724Z,98906.69
2022-08-24T07:31:55.711Z,98908.38
2022-08-24T07:42:13.039Z,98913.15
2022-08-24T07:52:22.605Z,98922.05
2022-08-24T08:02:29.810Z,98930.81
2022-08-24T08:12:42.973Z,98939.98
2022-08-24T08:23:08.425Z,98930.60
2022-08-24T08:33:15.658Z,98921.36
2022-08-24T08:43:29.519Z,98921.75
2022-08-24T08:54:05.702Z,98920.23
2022-08-24T09:04:25.517Z,98929.29
2022-08-24T09:25:11.580Z,98934.63
2022-08-24T09:35:26.631Z,98938.68
2022-08-24T09:46:01.248Z,98940.04
2022-08-24T09:56:29.566Z,98939.95
2022-08-24T10:06:44.619Z,98933.89
2022-08-24T10:16:51.014Z,98933.91
2022-08-24T10:27:21.407Z,98923.45
2022-08-24T10:38:17.128Z,98920.90
2022-08-24T10:48:34.571Z,98921.94
2022-08-24T11:08:54.293Z,98927.36
2022-08-24T11:19:04.001Z,98934.36
2022-08-24T11:29:11.155Z,98930.42
2022-08-24T11:39:16.361Z,98926.45
2022-08-24T11:49:28.035Z,98928.27
2022-08-24T12:09:45.996Z,98926.29
2022-08-24T12:19:57.361Z,98929.83
2022-08-24T12:30:07.275Z,98930.52
2022-08-24T12:40:22.824Z,98932.85
2022-08-24T12:50:32.539Z,98930.64
2022-08-24T13:00:46.408Z,98926.80
2022-08-24T13:10:54.060Z,98925.91
2022-08-24T13:21:01.432Z,98927.80
2022-08-24T13:31:20.752Z,98924.55
2022-08-24T13:41:54.549Z,98916.67
2022-08-24T13:52:09.519Z,98910.79
2022-08-24T14:02:27.840Z,98902.63
2022-08-24T14:12:45.848Z,98885.30
2022-08-24T14:22:56.429Z,98879.26
2022-08-24T14:33:10.947Z,98870.59
2022-08-24T14:43:30.603Z,98863.14
2022-08-24T14:53:50.416Z,98854.28
2022-08-24T15:04:36.191Z,98854.78
2022-08-24T15:14:53.854Z,98876.00
2022-08-24T15:25:06.133Z,98907.36
2022-08-24T15:35:24.387Z,98922.42
2022-08-24T15:45:32.102Z,98902.20
2022-08-24T15:55:38.265Z,98891.27
2022-08-24T16:05:49.432Z,98906.38
2022-08-24T16:15:59.393Z,98908.18
2022-08-24T16:26:22.367Z,98926.46
2022-08-24T16:36:29.765Z,98924.88
2022-08-24T16:46:37.059Z,98926.34
2022-08-24T16:56:42.521Z,98926.39
2022-08-24T17:06:50.824Z,98932.25
2022-08-24T17:16:59.100Z,98959.08
2022-08-24T17:27:07.356Z,98990.04
2022-08-24T17:37:15.326Z,98990.48
2022-08-24T17:47:22.629Z,98983.70
2022-08-24T17:57:28.967Z,98980.37
2022-08-24T18:07:52.588Z,98984.05
2022-08-24T18:28:09.199Z,98955.59
2022-08-24T18:38:16.695Z,98941.77
2022-08-24T18:48:24.988Z,98953.02
2022-08-24T18:58:32.398Z,98966.42
2022-08-24T19:08:39.735Z,98966.57
2022-08-24T19:18:49.347Z,98965.86
2022-08-24T19:28:57.294Z,98981.05
2022-08-24T19:39:04.993Z,98971.94
2022-08-24T19:49:13.371Z,98970.73
2022-08-24T19:59:22.541Z,98998.55
2022-08-24T20:09:29.132Z,99009.16
2022-08-24T20:19:37.764Z,99027.71
2022-08-24T20:29:44.964Z,99030.20
2022-08-24T20:39:53.518Z,99020.38
2022-08-24T20:50:00.812Z,99006.45
2022-08-24T21:00:09.742Z,98985.84
2022-08-24T21:10:17.956Z,98981.34
2022-08-24T21:20:25.745Z,98976.98
2022-08-24T21:30:34.983Z,98975.55
2022-08-24T21:40:43.331Z,98975.75
2022-08-24T21:50:50.936Z,98992.78
2022-08-24T22:00:59.287Z,98977.67
2022-08-24T22:11:08.391Z,98983.89
2022-08-24T22:21:17.667Z,98969.34
2022-08-24T22:31:27.035Z,98956.60
2022-08-24T22:41:34.467Z,98960.14
2022-08-24T22:51:41.728Z,98962.96
2022-08-24T23:01:51.876Z,98966.50
2022-08-24T23:11:59.732Z,98967.61
2022-08-24T23:22:08.829Z,98957.75
2022-08-24T23:32:18.290Z,98942.30
2022-08-24T23:42:25.694Z,98936.70
2022-08-24T23:52:32.937Z,98933.40
